aviador You're here:

PANW Decoded Metar

NEW STUYAHOK in AK, USA
Report Time2017-07-23 07:56:00
UTC Time2017-07-23 08:45:42
Flight Rules vfr VFR
Wind230° at 08 kt
W.Decomp.*RWY 14: 2.2 kt HW 7.7 kt RCW
W.Rank230° ranks 13
Current wind is below 230° avg. (9.5)
Visibility9999 m
Phenomena:N/A
Clouds:N/A
Expected CloudBase > 2,400 ft AGL from Temp-Dew spread
CeilingNone
Temp19°C (ISA +5)
Dew Point13°C (68% RH)
AAT17.0°C
QNH1017 hPa
Density Alt909 ft
Elevation302 ft
Report Wrong Elevation
Raw Report
PANW 230756Z AUTO 23008KT 10SM CLR 19/13 A3003 RMK AO2 SLP180
T01890133=

Extra information for PANW:More info

Metar Taf Metar & Taf Last 4 Metars F.Rules Stats Wind Profile Meteogram Temp Stats Airport Information Weather charts Add Link Nearby VenuesMetar ALERT Operation Metar Decoded Social comments

AIRNAV info for PANW